createdAt,value
2022-12-23T00:00:58.147Z,5.31
2022-12-23T00:04:01.021Z,5.37
2022-12-23T00:07:03.871Z,5.11
2022-12-23T00:10:07.017Z,4.80
2022-12-23T00:13:29.560Z,4.68
2022-12-23T00:16:35.482Z,4.55
2022-12-23T00:19:38.502Z,4.36
2022-12-23T00:23:00.827Z,4.16
2022-12-23T00:26:04.095Z,4.02
2022-12-23T00:29:07.003Z,3.93
2022-12-23T00:32:09.997Z,3.80
2022-12-23T00:35:12.972Z,3.68
2022-12-23T00:38:17.114Z,3.64
2022-12-23T00:41:38.595Z,3.56
2022-12-23T00:44:41.541Z,3.53
2022-12-23T00:48:05.055Z,3.43
2022-12-23T00:51:08.001Z,3.27
2022-12-23T00:54:10.819Z,3.32
2022-12-23T00:57:13.800Z,3.36
2022-12-23T01:00:17.432Z,3.44
2022-12-23T01:03:39.045Z,3.40
2022-12-23T01:06:42.161Z,3.43
2022-12-23T01:09:45.256Z,3.45
2022-12-23T01:12:48.296Z,3.41
2022-12-23T01:15:51.021Z,3.36
2022-12-23T01:18:53.836Z,3.35
2022-12-23T01:21:56.596Z,3.36
2022-12-23T01:24:59.499Z,3.33
2022-12-23T01:28:02.306Z,3.32
2022-12-23T01:31:06.390Z,3.36
2022-12-23T01:34:10.675Z,3.32
2022-12-23T01:37:13.627Z,3.18
2022-12-23T01:40:16.695Z,3.07
2022-12-23T01:43:20.522Z,3.04
2022-12-23T01:46:23.403Z,3.01
2022-12-23T01:49:26.268Z,3.06
2022-12-23T01:52:30.233Z,2.88
2022-12-23T01:55:59.401Z,2.79
2022-12-23T01:59:32.679Z,2.77
2022-12-23T02:02:56.109Z,2.79
2022-12-23T02:06:19.578Z,2.70
2022-12-23T02:09:31.377Z,2.73
2022-12-23T02:12:49.491Z,2.72
2022-12-23T02:16:19.358Z,2.67
2022-12-23T02:20:00.096Z,2.62
2022-12-23T02:23:21.366Z,2.67
2022-12-23T02:26:43.138Z,2.63
2022-12-23T02:30:20.209Z,2.70
2022-12-23T02:33:33.180Z,2.68
2022-12-23T02:37:07.635Z,2.71
2022-12-23T02:40:19.327Z,2.74
2022-12-23T02:43:42.132Z,2.62
2022-12-23T02:46:54.591Z,2.66
2022-12-23T02:50:02.637Z,2.71
2022-12-23T02:53:12.102Z,2.70
2022-12-23T02:56:16.680Z,2.80
2022-12-23T02:59:25.057Z,2.79
2022-12-23T03:02:28.047Z,2.76
2022-12-23T03:05:34.076Z,2.81
2022-12-23T03:08:44.827Z,2.64
2022-12-23T03:11:58.712Z,2.66
2022-12-23T03:15:28.287Z,2.67
2022-12-23T03:18:51.529Z,2.56
2022-12-23T03:22:22.063Z,2.64
2022-12-23T03:25:34.060Z,2.53
2022-12-23T03:28:45.913Z,2.42
2022-12-23T03:31:51.698Z,2.35
2022-12-23T03:34:59.894Z,2.24
2022-12-23T03:38:03.902Z,2.20
2022-12-23T03:41:12.778Z,2.14
2022-12-23T03:44:28.322Z,2.18
2022-12-23T03:47:37.664Z,2.08
2022-12-23T03:50:48.010Z,2.00
2022-12-23T03:54:01.606Z,2.03
2022-12-23T03:57:07.658Z,1.98
2022-12-23T04:00:11.672Z,1.96
2022-12-23T04:03:34.798Z,1.95
2022-12-23T04:06:47.825Z,1.90
2022-12-23T04:09:53.470Z,1.88
2022-12-23T04:12:56.463Z,1.75
2022-12-23T04:16:01.656Z,1.63
2022-12-23T04:19:04.517Z,1.64
2022-12-23T04:22:07.377Z,1.51
2022-12-23T04:25:11.578Z,1.61
2022-12-23T04:28:14.382Z,1.49
2022-12-23T04:31:17.236Z,1.55
2022-12-23T04:34:20.101Z,1.57
2022-12-23T04:37:22.945Z,1.48
2022-12-23T04:40:26.183Z,1.56
2022-12-23T04:43:29.072Z,1.55
2022-12-23T04:46:31.955Z,1.41
2022-12-23T04:49:34.988Z,1.53
2022-12-23T04:52:37.897Z,1.51
2022-12-23T04:55:40.712Z,1.40
2022-12-23T04:58:43.653Z,1.42
2022-12-23T05:01:46.770Z,1.38
2022-12-23T05:04:49.785Z,1.50
2022-12-23T05:07:52.712Z,1.57
2022-12-23T05:10:56.427Z,1.48
2022-12-23T05:13:59.348Z,1.48
2022-12-23T05:17:07.093Z,1.48
2022-12-23T05:20:10.940Z,1.49
2022-12-23T05:23:13.793Z,1.54
2022-12-23T05:26:16.787Z,1.51
2022-12-23T05:29:19.536Z,1.53
2022-12-23T05:32:22.306Z,1.50
2022-12-23T05:35:26.762Z,1.60
2022-12-23T05:38:29.726Z,1.62
2022-12-23T05:41:32.616Z,1.59
2022-12-23T05:44:35.356Z,1.66
2022-12-23T05:47:38.258Z,1.61
2022-12-23T05:50:44.334Z,1.51
2022-12-23T05:53:47.146Z,1.54
2022-12-23T05:56:50.068Z,1.53
2022-12-23T05:59:53.063Z,1.62
2022-12-23T06:02:56.328Z,1.57
2022-12-23T06:05:59.223Z,1.44
2022-12-23T06:09:02.461Z,1.60
2022-12-23T06:12:05.582Z,1.56
2022-12-23T06:15:08.888Z,1.62
2022-12-23T06:18:12.547Z,1.45
2022-12-23T06:21:15.302Z,1.41
2022-12-23T06:24:18.146Z,1.41
2022-12-23T06:27:21.069Z,1.41
2022-12-23T06:30:25.470Z,1.53
2022-12-23T06:33:28.376Z,1.58
2022-12-23T06:36:31.177Z,1.46
2022-12-23T06:39:33.904Z,1.44
2022-12-23T06:42:36.858Z,1.43
2022-12-23T06:45:41.114Z,1.37
2022-12-23T06:48:44.031Z,1.34
2022-12-23T06:51:47.137Z,1.50
2022-12-23T06:54:50.014Z,1.35
2022-12-23T06:57:52.799Z,1.40
2022-12-23T07:00:56.929Z,1.43
2022-12-23T07:04:00.000Z,1.54
2022-12-23T07:07:17.851Z,1.48
2022-12-23T07:10:21.063Z,1.58
2022-12-23T07:13:23.857Z,1.63
2022-12-23T07:16:27.041Z,1.79
2022-12-23T07:19:30.175Z,1.84
2022-12-23T07:22:32.936Z,1.84
2022-12-23T07:25:35.699Z,1.91
2022-12-23T07:28:38.587Z,2.01
2022-12-23T07:31:41.580Z,2.10
2022-12-23T07:34:44.410Z,2.15
2022-12-23T07:37:55.601Z,2.22
2022-12-23T07:40:58.377Z,2.13
2022-12-23T07:44:01.165Z,2.07
2022-12-23T07:47:03.944Z,2.29
2022-12-23T07:50:07.569Z,2.59
2022-12-23T07:53:10.436Z,2.67
2022-12-23T07:56:13.128Z,2.87
2022-12-23T07:59:16.252Z,3.01
2022-12-23T08:02:19.067Z,3.30
2022-12-23T08:05:22.203Z,3.46
2022-12-23T08:08:25.104Z,3.54
2022-12-23T08:11:27.989Z,3.67
2022-12-23T08:14:30.926Z,3.69
2022-12-23T08:17:33.828Z,3.94
2022-12-23T08:20:37.551Z,3.75
2022-12-23T08:23:41.523Z,4.04
2022-12-23T08:26:44.811Z,4.26
2022-12-23T08:29:47.755Z,4.20
2022-12-23T08:32:50.667Z,4.31
2022-12-23T08:35:55.117Z,4.29
2022-12-23T08:38:59.804Z,4.47
2022-12-23T08:42:02.765Z,4.26
2022-12-23T08:45:06.097Z,4.62
2022-12-23T08:48:09.096Z,5.17
2022-12-23T08:51:14.911Z,5.14
2022-12-23T08:54:19.866Z,5.55
2022-12-23T08:57:22.644Z,5.38
2022-12-23T09:00:26.217Z,5.37
2022-12-23T09:03:29.490Z,5.18
2022-12-23T09:06:35.978Z,4.91
2022-12-23T09:09:39.282Z,4.91
2022-12-23T09:12:42.506Z,4.90
2022-12-23T09:15:45.911Z,5.71
2022-12-23T09:18:48.626Z,6.09
2022-12-23T09:21:51.512Z,6.40
2022-12-23T09:24:58.656Z,6.23
2022-12-23T09:28:07.319Z,6.86
2022-12-23T09:31:12.582Z,6.66
2022-12-23T09:34:15.540Z,6.73
2022-12-23T09:37:18.621Z,6.78
2022-12-23T09:40:23.603Z,7.41
2022-12-23T09:43:37.339Z,8.17
2022-12-23T09:46:48.763Z,8.63
2022-12-23T09:49:59.212Z,8.93
2022-12-23T09:53:14.379Z,8.84
2022-12-23T09:56:26.001Z,8.34
2022-12-23T09:59:31.743Z,8.36
2022-12-23T10:03:04.563Z,8.86
2022-12-23T10:06:20.408Z,8.68
2022-12-23T10:09:23.500Z,8.27
2022-12-23T10:12:47.040Z,7.56
2022-12-23T10:15:52.025Z,8.82
2022-12-23T10:19:16.171Z,8.70
2022-12-23T10:22:29.960Z,9.21
2022-12-23T10:25:35.535Z,9.49
2022-12-23T10:28:38.381Z,10.34
2022-12-23T10:31:47.513Z,10.54
2022-12-23T10:35:18.560Z,11.35
2022-12-23T10:38:47.149Z,12.24
2022-12-23T10:42:18.881Z,12.91
2022-12-23T10:45:21.762Z,13.53
2022-12-23T10:49:02.728Z,13.71
2022-12-23T10:52:18.903Z,13.98
2022-12-23T10:55:32.906Z,13.28
2022-12-23T10:58:40.979Z,14.87
2022-12-23T11:01:50.663Z,17.16
2022-12-23T11:04:53.575Z,18.53
2022-12-23T11:07:57.358Z,19.09
2022-12-23T11:11:01.659Z,19.47
2022-12-23T11:14:04.478Z,19.37
2022-12-23T11:17:26.396Z,20.36
2022-12-23T11:20:36.326Z,20.37
2022-12-23T11:23:39.108Z,20.58
2022-12-23T11:26:42.751Z,21.24
2022-12-23T11:29:50.832Z,21.61
2022-12-23T11:32:53.677Z,21.20
2022-12-23T11:36:05.044Z,21.63
2022-12-23T11:39:10.558Z,21.74
2022-12-23T11:42:18.106Z,21.65
2022-12-23T11:45:27.304Z,23.28
2022-12-23T11:48:30.741Z,23.51
2022-12-23T11:51:33.855Z,23.28
2022-12-23T11:54:37.188Z,24.35
2022-12-23T11:57:45.122Z,23.76
2022-12-23T12:01:00.250Z,24.39
2022-12-23T12:04:09.323Z,23.43
2022-12-23T12:07:14.654Z,21.53
2022-12-23T12:10:31.923Z,21.52
2022-12-23T12:14:03.116Z,21.57
2022-12-23T12:17:19.559Z,21.92
2022-12-23T12:20:41.129Z,21.27
2022-12-23T12:24:08.151Z,20.72
2022-12-23T12:27:14.226Z,20.24
2022-12-23T12:30:20.619Z,18.89
2022-12-23T12:33:48.552Z,19.09
2022-12-23T12:37:01.015Z,18.82
2022-12-23T12:40:12.841Z,17.62
2022-12-23T12:43:32.249Z,17.21
2022-12-23T12:46:45.041Z,17.51
2022-12-23T12:49:54.886Z,17.37
2022-12-23T12:53:06.389Z,16.81
2022-12-23T12:56:30.542Z,16.12
2022-12-23T12:59:35.922Z,15.78
2022-12-23T13:03:00.457Z,15.61
2022-12-23T13:06:12.479Z,15.37
2022-12-23T13:09:56.602Z,14.77
2022-12-23T13:13:18.245Z,14.28
2022-12-23T13:16:27.272Z,14.50
2022-12-23T13:19:40.218Z,14.64
2022-12-23T13:22:45.462Z,14.30
2022-12-23T13:26:04.461Z,13.64
2022-12-23T13:29:38.984Z,13.23
2022-12-23T13:32:50.113Z,12.76
2022-12-23T13:36:06.741Z,12.82
2022-12-23T13:39:38.123Z,12.64
2022-12-23T13:42:48.834Z,12.47
2022-12-23T13:45:54.182Z,12.25
2022-12-23T13:49:25.443Z,12.07
2022-12-23T13:52:48.426Z,11.89
2022-12-23T13:56:24.096Z,11.84
2022-12-23T13:59:39.170Z,11.66
2022-12-23T14:02:48.708Z,11.61
2022-12-23T14:05:53.846Z,11.65
2022-12-23T14:08:56.634Z,11.62
2022-12-23T14:12:18.859Z,11.50
2022-12-23T14:15:33.850Z,11.34
2022-12-23T14:18:59.900Z,11.27
2022-12-23T14:22:26.979Z,11.05
2022-12-23T14:25:44.758Z,10.98
2022-12-23T14:28:56.736Z,10.84
2022-12-23T14:31:59.597Z,10.75
2022-12-23T14:35:23.046Z,10.62
2022-12-23T14:38:30.915Z,10.57
2022-12-23T14:41:51.522Z,10.39
2022-12-23T14:44:54.373Z,10.29
2022-12-23T14:48:00.010Z,10.27
2022-12-23T14:51:08.540Z,10.16
2022-12-23T14:54:14.318Z,9.97
2022-12-23T14:57:24.434Z,9.91
2022-12-23T15:00:32.270Z,9.87
2022-12-23T15:03:42.839Z,9.66
2022-12-23T15:06:48.716Z,9.59
2022-12-23T15:10:00.776Z,9.31
2022-12-23T15:13:06.304Z,9.23
2022-12-23T15:16:16.271Z,9.22
2022-12-23T15:19:19.210Z,9.11
2022-12-23T15:22:28.477Z,8.95
2022-12-23T15:25:39.824Z,8.73
2022-12-23T15:28:42.906Z,8.61
2022-12-23T15:31:50.726Z,8.65
2022-12-23T15:35:02.320Z,8.64
2022-12-23T15:38:06.273Z,8.56
2022-12-23T15:41:16.579Z,8.53
2022-12-23T15:44:23.234Z,8.40
2022-12-23T15:47:29.854Z,8.24
2022-12-23T15:50:41.739Z,8.12
2022-12-23T15:53:47.921Z,8.19
2022-12-23T15:56:53.495Z,8.11
2022-12-23T15:59:58.913Z,7.99
2022-12-23T16:03:04.573Z,7.94
2022-12-23T16:06:25.828Z,8.02
2022-12-23T16:09:35.144Z,8.06
2022-12-23T16:12:40.472Z,8.05
2022-12-23T16:15:44.869Z,7.92
2022-12-23T16:18:48.196Z,7.79
2022-12-23T16:21:51.145Z,7.68
2022-12-23T16:25:17.251Z,7.65
2022-12-23T16:28:24.497Z,7.68
2022-12-23T16:31:27.962Z,7.69
2022-12-23T16:34:31.974Z,7.60
2022-12-23T16:37:34.760Z,7.59
2022-12-23T16:40:37.789Z,7.47
2022-12-23T16:43:49.446Z,7.27
2022-12-23T16:46:54.609Z,7.14
2022-12-23T16:49:57.541Z,7.20
2022-12-23T16:53:00.412Z,7.23
2022-12-23T16:56:09.873Z,7.29
2022-12-23T16:59:13.903Z,7.29
2022-12-23T17:02:23.840Z,7.35
2022-12-23T17:05:26.769Z,7.19
2022-12-23T17:08:29.802Z,7.06
2022-12-23T17:11:40.222Z,6.89
2022-12-23T17:14:43.036Z,6.80
2022-12-23T17:17:45.998Z,6.74
2022-12-23T17:20:49.552Z,6.66
2022-12-23T17:24:05.166Z,6.61
2022-12-23T17:27:17.068Z,6.64
2022-12-23T17:30:23.591Z,6.84
2022-12-23T17:33:31.259Z,6.81
2022-12-23T17:36:34.124Z,6.79
2022-12-23T17:39:37.168Z,6.73
2022-12-23T17:42:40.873Z,6.69
2022-12-23T17:45:45.107Z,6.68
2022-12-23T17:48:48.199Z,6.85
2022-12-23T17:51:51.477Z,6.81
2022-12-23T17:54:54.489Z,6.69
2022-12-23T17:57:57.467Z,6.59
2022-12-23T18:01:00.524Z,6.60
2022-12-23T18:04:03.559Z,6.63
2022-12-23T18:07:06.538Z,6.53
2022-12-23T18:10:13.400Z,6.41
2022-12-23T18:13:19.881Z,6.37
2022-12-23T18:16:22.843Z,6.30
2022-12-23T18:19:26.108Z,6.30
2022-12-23T18:22:29.106Z,6.26
2022-12-23T18:25:32.036Z,6.32
2022-12-23T18:28:34.952Z,6.39
2022-12-23T18:31:50.986Z,6.45
2022-12-23T18:34:55.827Z,6.53
2022-12-23T18:37:59.609Z,6.56
2022-12-23T18:41:02.529Z,6.60
2022-12-23T18:44:05.542Z,6.54
2022-12-23T18:47:09.100Z,6.56
2022-12-23T18:50:13.660Z,6.54
2022-12-23T18:53:25.484Z,6.62
2022-12-23T18:56:28.723Z,6.64
2022-12-23T18:59:33.290Z,6.65
2022-12-23T19:02:36.615Z,6.62
2022-12-23T19:05:39.571Z,6.58
2022-12-23T19:08:43.896Z,6.54
2022-12-23T19:11:48.591Z,6.47
2022-12-23T19:14:51.574Z,6.38
2022-12-23T19:17:54.305Z,6.29
2022-12-23T19:21:04.374Z,6.33
2022-12-23T19:24:07.366Z,6.26
2022-12-23T19:27:10.168Z,6.28
2022-12-23T19:30:15.528Z,6.30
2022-12-23T19:33:18.904Z,6.26
2022-12-23T19:36:25.201Z,6.26
2022-12-23T19:39:28.402Z,6.29
2022-12-23T19:42:31.341Z,6.21
2022-12-23T19:45:34.408Z,6.24
2022-12-23T19:48:38.011Z,6.17
2022-12-23T19:51:40.997Z,6.21
2022-12-23T19:54:43.959Z,6.19
2022-12-23T19:57:46.677Z,6.19
2022-12-23T20:00:49.544Z,6.19
2022-12-23T20:03:54.466Z,6.22
2022-12-23T20:06:57.253Z,6.20
2022-12-23T20:10:00.191Z,6.23
2022-12-23T20:13:03.263Z,6.23
2022-12-23T20:16:07.211Z,6.37
2022-12-23T20:19:11.265Z,6.39
2022-12-23T20:22:14.421Z,6.43
2022-12-23T20:25:17.299Z,6.34
2022-12-23T20:28:20.285Z,6.44
2022-12-23T20:31:31.757Z,6.45
2022-12-23T20:34:39.185Z,6.44
2022-12-23T20:37:43.005Z,6.42
2022-12-23T20:40:46.023Z,6.44
2022-12-23T20:44:23.449Z,6.52
2022-12-23T20:47:12.713Z,6.62
2022-12-23T20:50:16.221Z,6.64
2022-12-23T20:53:18.977Z,6.68
2022-12-23T20:56:27.706Z,6.74
2022-12-23T20:59:30.678Z,6.79
2022-12-23T21:02:33.525Z,6.89
2022-12-23T21:05:36.295Z,6.92
2022-12-23T21:08:39.459Z,6.91
2022-12-23T21:11:44.354Z,6.96
2022-12-23T21:14:47.133Z,6.93
2022-12-23T21:17:50.112Z,6.98
2022-12-23T21:20:53.175Z,7.08
2022-12-23T21:23:57.887Z,7.19
2022-12-23T21:27:00.857Z,7.07
2022-12-23T21:30:04.169Z,7.04
2022-12-23T21:33:08.554Z,6.94
2022-12-23T21:36:19.787Z,6.85
2022-12-23T21:39:23.171Z,6.77
2022-12-23T21:42:26.141Z,6.83
2022-12-23T21:45:29.149Z,6.93
2022-12-23T21:48:34.376Z,7.02
2022-12-23T21:51:40.511Z,7.00
2022-12-23T21:54:44.128Z,6.96
2022-12-23T21:57:47.360Z,6.91
2022-12-23T22:00:50.166Z,6.81
2022-12-23T22:03:54.271Z,6.78
2022-12-23T22:06:57.133Z,6.73
2022-12-23T22:10:00.142Z,6.74
2022-12-23T22:13:03.027Z,6.75
2022-12-23T22:16:10.649Z,6.78
2022-12-23T22:19:14.948Z,6.82
2022-12-23T22:22:17.668Z,6.77
2022-12-23T22:25:20.448Z,6.75
2022-12-23T22:28:23.313Z,6.81
2022-12-23T22:31:30.153Z,6.67
2022-12-23T22:34:33.125Z,6.84
2022-12-23T22:37:35.903Z,6.94
2022-12-23T22:40:38.914Z,6.96
2022-12-23T22:43:41.712Z,7.00
2022-12-23T22:46:45.443Z,6.82
2022-12-23T22:49:48.454Z,6.81
2022-12-23T22:52:51.550Z,6.82
2022-12-23T22:56:01.582Z,6.79
2022-12-23T22:59:05.065Z,6.66
2022-12-23T23:02:07.877Z,6.66
2022-12-23T23:05:13.102Z,6.61
2022-12-23T23:08:16.295Z,6.58
2022-12-23T23:11:19.686Z,6.55
2022-12-23T23:14:22.548Z,6.52
2022-12-23T23:17:28.067Z,6.55
2022-12-23T23:20:30.851Z,6.63
2022-12-23T23:23:34.285Z,6.74
2022-12-23T23:26:36.994Z,6.93
2022-12-23T23:29:40.060Z,7.00
2022-12-23T23:32:43.098Z,6.98
2022-12-23T23:35:46.013Z,6.90
2022-12-23T23:38:48.825Z,6.94
2022-12-23T23:41:51.691Z,6.87
2022-12-23T23:44:54.760Z,6.91
2022-12-23T23:47:57.646Z,7.08
2022-12-23T23:51:06.088Z,6.99
2022-12-23T23:54:09.620Z,7.09
2022-12-23T23:57:12.445Z,7.03
